sensor_id;sensor_type;location;lat;lon;timestamp;P1;durP1;ratioP1;P2;durP2;ratioP2
78290;SDS011;67543;45.494;9.100;2023-04-24T06:19:57;4.32;;;2.95;;
78290;SDS011;67543;45.494;9.100;2023-04-24T06:22:23;4.05;;;2.67;;
78290;SDS011;67543;45.494;9.100;2023-04-24T06:24:48;2.90;;;2.10;;
78290;SDS011;67543;45.494;9.100;2023-04-24T06:27:14;3.08;;;2.40;;
78290;SDS011;67543;45.494;9.100;2023-04-24T06:29:39;4.15;;;2.33;;
78290;SDS011;67543;45.494;9.100;2023-04-24T06:32:05;2.88;;;1.85;;
78290;SDS011;67543;45.494;9.100;2023-04-24T06:34:30;2.70;;;1.92;;
78290;SDS011;67543;45.494;9.100;2023-04-24T06:36:57;4.07;;;2.20;;
78290;SDS011;67543;45.494;9.100;2023-04-24T06:39:23;5.20;;;2.78;;
78290;SDS011;67543;45.494;9.100;2023-04-24T06:41:48;2.25;;;1.60;;
78290;SDS011;67543;45.494;9.100;2023-04-24T06:44:13;2.45;;;1.90;;
78290;SDS011;67543;45.494;9.100;2023-04-24T06:46:40;4.57;;;1.98;;
78290;SDS011;67543;45.494;9.100;2023-04-24T06:49:06;3.22;;;2.15;;
78290;SDS011;67543;45.494;9.100;2023-04-24T06:51:31;3.08;;;1.90;;
78290;SDS011;67543;45.494;9.100;2023-04-24T06:53:58;7.30;;;2.10;;
78290;SDS011;67543;45.494;9.100;2023-04-24T06:56:23;4.32;;;2.90;;
78290;SDS011;67543;45.494;9.100;2023-04-24T06:58:50;2.95;;;2.67;;
78290;SDS011;67543;45.494;9.100;2023-04-24T07:01:16;4.22;;;2.63;;
78290;SDS011;67543;45.494;9.100;2023-04-24T07:03:41;6.32;;;2.70;;
78290;SDS011;67543;45.494;9.100;2023-04-24T07:06:06;5.55;;;2.75;;
78290;SDS011;67543;45.494;9.100;2023-04-24T07:08:38;4.78;;;2.55;;
78290;SDS011;67543;45.494;9.100;2023-04-24T07:11:03;4.15;;;1.90;;
78290;SDS011;67543;45.494;9.100;2023-04-24T07:13:29;2.75;;;2.03;;
78290;SDS011;67543;45.494;9.100;2023-04-24T07:15:55;4.03;;;2.03;;
78290;SDS011;67543;45.494;9.100;2023-04-24T07:18:21;2.88;;;1.63;;
78290;SDS011;67543;45.494;9.100;2023-04-24T07:20:46;3.72;;;2.00;;
78290;SDS011;67543;45.494;9.100;2023-04-24T07:23:12;2.95;;;1.73;;
78290;SDS011;67543;45.494;9.100;2023-04-24T07:25:37;4.88;;;2.22;;
78290;SDS011;67543;45.494;9.100;2023-04-24T07:28:03;4.30;;;2.35;;
78290;SDS011;67543;45.494;9.100;2023-04-24T07:30:29;3.65;;;1.85;;
78290;SDS011;67543;45.494;9.100;2023-04-24T07:32:55;3.67;;;2.20;;
78290;SDS011;67543;45.494;9.100;2023-04-24T07:35:20;2.22;;;1.80;;
78290;SDS011;67543;45.494;9.100;2023-04-24T07:37:46;2.67;;;1.90;;
78290;SDS011;67543;45.494;9.100;2023-04-24T07:40:12;3.38;;;2.20;;
78290;SDS011;67543;45.494;9.100;2023-04-24T07:42:38;2.72;;;2.00;;
78290;SDS011;67543;45.494;9.100;2023-04-24T07:45:04;2.10;;;1.55;;
78290;SDS011;67543;45.494;9.100;2023-04-24T07:47:30;4.88;;;1.80;;
78290;SDS011;67543;45.494;9.100;2023-04-24T07:49:56;2.30;;;1.75;;
78290;SDS011;67543;45.494;9.100;2023-04-24T07:52:21;4.13;;;1.95;;
78290;SDS011;67543;45.494;9.100;2023-04-24T07:54:47;3.70;;;1.92;;
78290;SDS011;67543;45.494;9.100;2023-04-24T07:57:12;2.63;;;1.98;;
78290;SDS011;67543;45.494;9.100;2023-04-24T07:59:38;3.00;;;1.90;;
78290;SDS011;67543;45.494;9.100;2023-04-24T08:02:04;3.22;;;1.85;;
78290;SDS011;67543;45.494;9.100;2023-04-24T08:04:31;1.65;;;1.30;;
78290;SDS011;67543;45.494;9.100;2023-04-24T08:06:56;2.47;;;1.63;;
78290;SDS011;67543;45.494;9.100;2023-04-24T08:09:22;6.00;;;1.42;;
78290;SDS011;67543;45.494;9.100;2023-04-24T08:11:48;2.53;;;1.40;;
78290;SDS011;67543;45.494;9.100;2023-04-24T08:14:14;3.85;;;1.55;;
78290;SDS011;67543;45.494;9.100;2023-04-24T08:16:40;2.22;;;1.58;;
78290;SDS011;67543;45.494;9.100;2023-04-24T08:19:05;2.35;;;1.73;;
78290;SDS011;67543;45.494;9.100;2023-04-24T08:21:31;3.83;;;1.95;;
78290;SDS011;67543;45.494;9.100;2023-04-24T08:23:57;3.20;;;1.50;;
78290;SDS011;67543;45.494;9.100;2023-04-24T08:26:22;3.35;;;1.23;;
78290;SDS011;67543;45.494;9.100;2023-04-24T08:28:47;2.85;;;2.13;;
78290;SDS011;67543;45.494;9.100;2023-04-24T08:31:13;2.50;;;1.25;;
78290;SDS011;67543;45.494;9.100;2023-04-24T08:33:39;2.50;;;1.35;;
78290;SDS011;67543;45.494;9.100;2023-04-24T08:36:06;1.98;;;1.33;;
78290;SDS011;67543;45.494;9.100;2023-04-24T08:38:32;1.42;;;1.10;;
78290;SDS011;67543;45.494;9.100;2023-04-24T08:40:58;2.55;;;1.33;;
78290;SDS011;67543;45.494;9.100;2023-04-24T08:43:25;3.10;;;1.50;;
78290;SDS011;67543;45.494;9.100;2023-04-24T08:45:51;2.28;;;1.45;;
78290;SDS011;67543;45.494;9.100;2023-04-24T08:48:17;2.85;;;1.48;;
78290;SDS011;67543;45.494;9.100;2023-04-24T08:50:43;3.97;;;1.45;;
78290;SDS011;67543;45.494;9.100;2023-04-24T08:53:09;1.67;;;1.42;;
78290;SDS011;67543;45.494;9.100;2023-04-24T08:55:38;2.28;;;1.63;;
78290;SDS011;67543;45.494;9.100;2023-04-24T08:58:07;2.67;;;1.48;;
78290;SDS011;67543;45.494;9.100;2023-04-24T09:00:35;2.30;;;1.55;;
78290;SDS011;67543;45.494;9.100;2023-04-24T09:03:01;3.60;;;1.90;;
78290;SDS011;67543;45.494;9.100;2023-04-24T09:05:29;2.70;;;1.85;;
78290;SDS011;67543;45.494;9.100;2023-04-24T09:07:59;4.32;;;1.95;;
78290;SDS011;67543;45.494;9.100;2023-04-24T09:10:27;3.65;;;2.40;;
78290;SDS011;67543;45.494;9.100;2023-04-24T09:12:57;3.55;;;1.88;;
78290;SDS011;67543;45.494;9.100;2023-04-24T09:15:24;2.58;;;1.90;;
78290;SDS011;67543;45.494;9.100;2023-04-24T09:17:53;5.85;;;2.10;;
78290;SDS011;67543;45.494;9.100;2023-04-24T09:23:29;2.63;;;1.63;;
78290;SDS011;67543;45.494;9.100;2023-04-24T09:25:57;3.03;;;2.00;;
78290;SDS011;67543;45.494;9.100;2023-04-24T09:28:33;2.95;;;1.63;;
78290;SDS011;67543;45.494;9.100;2023-04-24T09:31:06;3.47;;;2.22;;
78290;SDS011;67543;45.494;9.100;2023-04-24T09:33:39;3.47;;;1.92;;
78290;SDS011;67543;45.494;9.100;2023-04-24T09:36:08;3.20;;;1.88;;
78290;SDS011;67543;45.494;9.100;2023-04-24T09:38:37;5.68;;;1.83;;
78290;SDS011;67543;45.494;9.100;2023-04-24T09:41:03;3.10;;;1.70;;
78290;SDS011;67543;45.494;9.100;2023-04-24T09:43:30;2.95;;;1.65;;
78290;SDS011;67543;45.494;9.100;2023-04-24T09:45:59;2.90;;;1.23;;
78290;SDS011;67543;45.494;9.100;2023-04-24T09:48:30;2.55;;;1.67;;
78290;SDS011;67543;45.494;9.100;2023-04-24T09:50:58;2.72;;;1.30;;
78290;SDS011;67543;45.494;9.100;2023-04-24T09:53:24;3.83;;;2.47;;
78290;SDS011;67543;45.494;9.100;2023-04-24T09:55:51;3.08;;;1.33;;
78290;SDS011;67543;45.494;9.100;2023-04-24T09:58:28;1.55;;;0.88;;
78290;SDS011;67543;45.494;9.100;2023-04-24T10:00:55;1.83;;;1.25;;
78290;SDS011;67543;45.494;9.100;2023-04-24T10:03:21;3.08;;;1.20;;
78290;SDS011;67543;45.494;9.100;2023-04-24T10:05:49;1.20;;;0.75;;
78290;SDS011;67543;45.494;9.100;2023-04-24T10:08:16;1.48;;;0.73;;
78290;SDS011;67543;45.494;9.100;2023-04-24T10:10:43;1.63;;;0.90;;
78290;SDS011;67543;45.494;9.100;2023-04-24T10:13:12;1.52;;;1.13;;
78290;SDS011;67543;45.494;9.100;2023-04-24T10:15:40;1.63;;;1.13;;
78290;SDS011;67543;45.494;9.100;2023-04-24T10:18:07;2.10;;;0.95;;
78290;SDS011;67543;45.494;9.100;2023-04-24T10:20:36;2.08;;;1.02;;
78290;SDS011;67543;45.494;9.100;2023-04-24T10:23:04;1.83;;;0.85;;
78290;SDS011;67543;45.494;9.100;2023-04-24T10:25:33;2.28;;;0.80;;
78290;SDS011;67543;45.494;9.100;2023-04-24T10:28:02;1.52;;;0.90;;
78290;SDS011;67543;45.494;9.100;2023-04-24T10:30:32;3.83;;;1.20;;
78290;SDS011;67543;45.494;9.100;2023-04-24T10:33:06;3.13;;;1.20;;
78290;SDS011;67543;45.494;9.100;2023-04-24T10:35:39;1.38;;;0.85;;
78290;SDS011;67543;45.494;9.100;2023-04-24T10:38:13;1.30;;;0.60;;
78290;SDS011;67543;45.494;9.100;2023-04-24T10:40:42;1.67;;;0.65;;
78290;SDS011;67543;45.494;9.100;2023-04-24T10:43:09;1.10;;;0.70;;
78290;SDS011;67543;45.494;9.100;2023-04-24T10:45:36;2.47;;;0.80;;
78290;SDS011;67543;45.494;9.100;2023-04-24T10:48:03;1.30;;;0.65;;
78290;SDS011;67543;45.494;9.100;2023-04-24T10:53:12;1.65;;;0.95;;
78290;SDS011;67543;45.494;9.100;2023-04-24T10:56:07;1.35;;;0.70;;
78290;SDS011;67543;45.494;9.100;2023-04-24T10:58:42;1.75;;;0.75;;
78290;SDS011;67543;45.494;9.100;2023-04-24T11:01:29;1.75;;;1.00;;
78290;SDS011;67543;45.494;9.100;2023-04-24T11:03:59;1.50;;;1.00;;
78290;SDS011;67543;45.494;9.100;2023-04-24T11:06:31;2.15;;;0.82;;
78290;SDS011;67543;45.494;9.100;2023-04-24T11:09:07;1.40;;;0.88;;
78290;SDS011;67543;45.494;9.100;2023-04-24T11:11:37;1.58;;;0.73;;
78290;SDS011;67543;45.494;9.100;2023-04-24T11:14:06;1.48;;;0.63;;
78290;SDS011;67543;45.494;9.100;2023-04-24T11:16:33;1.65;;;1.20;;
78290;SDS011;67543;45.494;9.100;2023-04-24T11:21:46;3.65;;;1.00;;
78290;SDS011;67543;45.494;9.100;2023-04-24T11:29:39;1.02;;;0.55;;
78290;SDS011;67543;45.494;9.100;2023-04-24T11:32:27;2.33;;;0.77;;
78290;SDS011;67543;45.494;9.100;2023-04-24T11:34:55;1.80;;;0.80;;
78290;SDS011;67543;45.494;9.100;2023-04-24T11:37:26;1.88;;;0.47;;
78290;SDS011;67543;45.494;9.100;2023-04-24T11:39:56;1.50;;;0.68;;
78290;SDS011;67543;45.494;9.100;2023-04-24T11:42:22;2.63;;;0.90;;
78290;SDS011;67543;45.494;9.100;2023-04-24T11:44:52;1.88;;;0.82;;
78290;SDS011;67543;45.494;9.100;2023-04-24T11:47:30;5.38;;;0.90;;
78290;SDS011;67543;45.494;9.100;2023-04-24T11:50:01;1.25;;;0.60;;
78290;SDS011;67543;45.494;9.100;2023-04-24T11:52:29;2.00;;;0.70;;
78290;SDS011;67543;45.494;9.100;2023-04-24T11:54:55;1.60;;;0.90;;
78290;SDS011;67543;45.494;9.100;2023-04-24T11:57:27;1.38;;;0.60;;
78290;SDS011;67543;45.494;9.100;2023-04-24T12:00:02;1.27;;;0.55;;
78290;SDS011;67543;45.494;9.100;2023-04-24T12:02:33;2.78;;;0.80;;
78290;SDS011;67543;45.494;9.100;2023-04-24T12:05:04;1.70;;;0.80;;
78290;SDS011;67543;45.494;9.100;2023-04-24T12:07:42;2.10;;;0.63;;
78290;SDS011;67543;45.494;9.100;2023-04-24T12:10:12;2.75;;;0.60;;
78290;SDS011;67543;45.494;9.100;2023-04-24T12:12:42;1.73;;;0.60;;
78290;SDS011;67543;45.494;9.100;2023-04-24T12:15:15;1.65;;;0.50;;
78290;SDS011;67543;45.494;9.100;2023-04-24T12:17:43;2.03;;;0.90;;
78290;SDS011;67543;45.494;9.100;2023-04-24T12:20:11;3.40;;;1.10;;
78290;SDS011;67543;45.494;9.100;2023-04-24T12:22:47;1.20;;;0.80;;
78290;SDS011;67543;45.494;9.100;2023-04-24T12:25:16;1.73;;;1.08;;
78290;SDS011;67543;45.494;9.100;2023-04-24T12:27:46;1.10;;;0.60;;
78290;SDS011;67543;45.494;9.100;2023-04-24T12:30:13;0.90;;;0.52;;
78290;SDS011;67543;45.494;9.100;2023-04-24T12:32:42;1.40;;;0.63;;
78290;SDS011;67543;45.494;9.100;2023-04-24T12:35:09;1.08;;;0.52;;
78290;SDS011;67543;45.494;9.100;2023-04-24T12:37:34;1.27;;;0.80;;
78290;SDS011;67543;45.494;9.100;2023-04-24T12:40:02;0.70;;;0.47;;
78290;SDS011;67543;45.494;9.100;2023-04-24T12:42:29;1.10;;;0.45;;
78290;SDS011;67543;45.494;9.100;2023-04-24T12:44:59;1.48;;;0.35;;
78290;SDS011;67543;45.494;9.100;2023-04-24T12:47:25;1.83;;;0.57;;
78290;SDS011;67543;45.494;9.100;2023-04-24T12:49:52;0.60;;;0.38;;
78290;SDS011;67543;45.494;9.100;2023-04-24T12:52:21;1.10;;;0.47;;
78290;SDS011;67543;45.494;9.100;2023-04-24T12:54:48;1.08;;;0.38;;
78290;SDS011;67543;45.494;9.100;2023-04-24T12:57:14;1.83;;;0.20;;
78290;SDS011;67543;45.494;9.100;2023-04-24T12:59:40;0.35;;;0.20;;
78290;SDS011;67543;45.494;9.100;2023-04-24T13:02:06;0.75;;;0.30;;
78290;SDS011;67543;45.494;9.100;2023-04-24T13:04:31;0.70;;;0.30;;
78290;SDS011;67543;45.494;9.100;2023-04-24T13:06:57;1.50;;;0.40;;
78290;SDS011;67543;45.494;9.100;2023-04-24T13:09:22;2.00;;;0.60;;
78290;SDS011;67543;45.494;9.100;2023-04-24T13:11:48;1.45;;;0.25;;
78290;SDS011;67543;45.494;9.100;2023-04-24T13:14:14;0.40;;;0.10;;
78290;SDS011;67543;45.494;9.100;2023-04-24T13:16:40;0.47;;;0.30;;
78290;SDS011;67543;45.494;9.100;2023-04-24T13:19:05;0.88;;;0.30;;
78290;SDS011;67543;45.494;9.100;2023-04-24T13:21:31;0.52;;;0.35;;
78290;SDS011;67543;45.494;9.100;2023-04-24T13:23:56;2.05;;;0.30;;
78290;SDS011;67543;45.494;9.100;2023-04-24T13:26:22;0.57;;;0.32;;
78290;SDS011;67543;45.494;9.100;2023-04-24T13:28:47;0.82;;;0.38;;
78290;SDS011;67543;45.494;9.100;2023-04-24T13:31:12;0.75;;;0.22;;
78290;SDS011;67543;45.494;9.100;2023-04-24T13:33:38;0.35;;;0.25;;
78290;SDS011;67543;45.494;9.100;2023-04-24T13:36:04;1.33;;;0.32;;
78290;SDS011;67543;45.494;9.100;2023-04-24T13:38:29;0.70;;;0.30;;
78290;SDS011;67543;45.494;9.100;2023-04-24T13:40:54;0.73;;;0.40;;
78290;SDS011;67543;45.494;9.100;2023-04-24T13:43:20;0.88;;;0.28;;
78290;SDS011;67543;45.494;9.100;2023-04-24T13:45:45;0.77;;;0.30;;
78290;SDS011;67543;45.494;9.100;2023-04-24T13:48:10;0.25;;;0.13;;
78290;SDS011;67543;45.494;9.100;2023-04-24T13:50:36;0.70;;;0.30;;
78290;SDS011;67543;45.494;9.100;2023-04-24T13:53:01;0.65;;;0.40;;
78290;SDS011;67543;45.494;9.100;2023-04-24T13:55:28;2.30;;;0.40;;
78290;SDS011;67543;45.494;9.100;2023-04-24T13:57:53;1.70;;;0.50;;
78290;SDS011;67543;45.494;9.100;2023-04-24T14:00:20;0.73;;;0.30;;
78290;SDS011;67543;45.494;9.100;2023-04-24T14:02:46;1.70;;;0.30;;
78290;SDS011;67543;45.494;9.100;2023-04-24T14:05:12;0.30;;;0.30;;
78290;SDS011;67543;45.494;9.100;2023-04-24T14:07:40;0.68;;;0.40;;
78290;SDS011;67543;45.494;9.100;2023-04-24T14:10:05;0.60;;;0.30;;
78290;SDS011;67543;45.494;9.100;2023-04-24T14:12:31;0.82;;;0.28;;
78290;SDS011;67543;45.494;9.100;2023-04-24T14:14:58;0.85;;;0.25;;
78290;SDS011;67543;45.494;9.100;2023-04-24T14:17:23;0.38;;;0.15;;
78290;SDS011;67543;45.494;9.100;2023-04-24T14:19:48;0.95;;;0.30;;
78290;SDS011;67543;45.494;9.100;2023-04-24T14:22:15;0.50;;;0.20;;
78290;SDS011;67543;45.494;9.100;2023-04-24T14:24:41;1.50;;;0.22;;
78290;SDS011;67543;45.494;9.100;2023-04-24T14:27:06;1.30;;;0.30;;
78290;SDS011;67543;45.494;9.100;2023-04-24T14:29:32;1.25;;;0.28;;
78290;SDS011;67543;45.494;9.100;2023-04-24T14:31:57;0.20;;;0.15;;
78290;SDS011;67543;45.494;9.100;2023-04-24T14:34:23;0.20;;;0.10;;
78290;SDS011;67543;45.494;9.100;2023-04-24T14:36:48;0.65;;;0.30;;
78290;SDS011;67543;45.494;9.100;2023-04-24T14:39:13;0.33;;;0.23;;
78290;SDS011;67543;45.494;9.100;2023-04-24T14:41:39;1.02;;;0.22;;
78290;SDS011;67543;45.494;9.100;2023-04-24T14:44:05;0.35;;;0.20;;
78290;SDS011;67543;45.494;9.100;2023-04-24T14:46:31;0.40;;;0.10;;
78290;SDS011;67543;45.494;9.100;2023-04-24T14:48:56;0.60;;;0.32;;
78290;SDS011;67543;45.494;9.100;2023-04-24T14:51:22;0.50;;;0.10;;
78290;SDS011;67543;45.494;9.100;2023-04-24T14:53:48;0.73;;;0.20;;
78290;SDS011;67543;45.494;9.100;2023-04-24T14:56:13;1.15;;;0.22;;
78290;SDS011;67543;45.494;9.100;2023-04-24T14:58:39;0.47;;;0.30;;
78290;SDS011;67543;45.494;9.100;2023-04-24T15:01:04;0.40;;;0.20;;
78290;SDS011;67543;45.494;9.100;2023-04-24T15:03:30;0.20;;;0.17;;
78290;SDS011;67543;45.494;9.100;2023-04-24T15:05:55;0.90;;;0.35;;
78290;SDS011;67543;45.494;9.100;2023-04-24T15:08:21;1.42;;;0.40;;
78290;SDS011;67543;45.494;9.100;2023-04-24T15:10:47;0.47;;;0.20;;
78290;SDS011;67543;45.494;9.100;2023-04-24T15:13:12;1.75;;;0.20;;
78290;SDS011;67543;45.494;9.100;2023-04-24T15:15:38;0.65;;;0.40;;
78290;SDS011;67543;45.494;9.100;2023-04-24T15:18:04;3.03;;;0.28;;
78290;SDS011;67543;45.494;9.100;2023-04-24T15:20:30;1.48;;;0.30;;
78290;SDS011;67543;45.494;9.100;2023-04-24T15:22:56;0.77;;;0.25;;
78290;SDS011;67543;45.494;9.100;2023-04-24T15:25:24;0.35;;;0.25;;
78290;SDS011;67543;45.494;9.100;2023-04-24T15:27:51;0.68;;;0.20;;
78290;SDS011;67543;45.494;9.100;2023-04-24T15:30:18;0.50;;;0.20;;
78290;SDS011;67543;45.494;9.100;2023-04-24T15:32:44;0.80;;;0.30;;
78290;SDS011;67543;45.494;9.100;2023-04-24T15:35:10;1.30;;;0.30;;
78290;SDS011;67543;45.494;9.100;2023-04-24T15:37:35;1.27;;;0.30;;
78290;SDS011;67543;45.494;9.100;2023-04-24T15:40:02;1.35;;;0.30;;
78290;SDS011;67543;45.494;9.100;2023-04-24T15:42:31;0.73;;;0.30;;
78290;SDS011;67543;45.494;9.100;2023-04-24T15:44:57;0.38;;;0.22;;
78290;SDS011;67543;45.494;9.100;2023-04-24T15:47:22;0.63;;;0.30;;
78290;SDS011;67543;45.494;9.100;2023-04-24T15:49:49;0.40;;;0.32;;
78290;SDS011;67543;45.494;9.100;2023-04-24T15:52:15;0.95;;;0.43;;
78290;SDS011;67543;45.494;9.100;2023-04-24T15:54:40;0.95;;;0.35;;
78290;SDS011;67543;45.494;9.100;2023-04-24T15:57:06;0.75;;;0.30;;
78290;SDS011;67543;45.494;9.100;2023-04-24T15:59:31;1.98;;;0.50;;
78290;SDS011;67543;45.494;9.100;2023-04-24T16:01:57;1.17;;;0.52;;
78290;SDS011;67543;45.494;9.100;2023-04-24T16:04:23;0.35;;;0.30;;
78290;SDS011;67543;45.494;9.100;2023-04-24T16:06:48;1.33;;;0.30;;
78290;SDS011;67543;45.494;9.100;2023-04-24T16:09:14;0.50;;;0.28;;
78290;SDS011;67543;45.494;9.100;2023-04-24T16:11:39;1.55;;;0.30;;
78290;SDS011;67543;45.494;9.100;2023-04-24T16:14:05;0.77;;;0.35;;
78290;SDS011;67543;45.494;9.100;2023-04-24T16:16:30;0.70;;;0.30;;
78290;SDS011;67543;45.494;9.100;2023-04-24T16:18:56;0.80;;;0.20;;
78290;SDS011;67543;45.494;9.100;2023-04-24T16:21:21;0.63;;;0.40;;
78290;SDS011;67543;45.494;9.100;2023-04-24T16:23:46;0.30;;;0.13;;
78290;SDS011;67543;45.494;9.100;2023-04-24T16:26:12;1.92;;;0.40;;
78290;SDS011;67543;45.494;9.100;2023-04-24T16:28:38;1.48;;;0.40;;
78290;SDS011;67543;45.494;9.100;2023-04-24T16:31:04;0.88;;;0.50;;
78290;SDS011;67543;45.494;9.100;2023-04-24T16:33:29;1.77;;;0.38;;
78290;SDS011;67543;45.494;9.100;2023-04-24T16:35:55;0.65;;;0.35;;
78290;SDS011;67543;45.494;9.100;2023-04-24T16:38:21;1.75;;;0.50;;
78290;SDS011;67543;45.494;9.100;2023-04-24T16:40:49;0.80;;;0.32;;
78290;SDS011;67543;45.494;9.100;2023-04-24T16:43:14;1.67;;;0.43;;
78290;SDS011;67543;45.494;9.100;2023-04-24T16:45:40;1.45;;;0.25;;
78290;SDS011;67543;45.494;9.100;2023-04-24T16:48:05;0.68;;;0.25;;
78290;SDS011;67543;45.494;9.100;2023-04-24T16:50:32;0.77;;;0.30;;
78290;SDS011;67543;45.494;9.100;2023-04-24T16:52:58;2.90;;;0.40;;
78290;SDS011;67543;45.494;9.100;2023-04-24T16:55:24;1.02;;;0.45;;
78290;SDS011;67543;45.494;9.100;2023-04-24T16:57:50;1.10;;;0.43;;
78290;SDS011;67543;45.494;9.100;2023-04-24T17:00:16;0.77;;;0.43;;
78290;SDS011;67543;45.494;9.100;2023-04-24T17:02:45;2.05;;;0.45;;
78290;SDS011;67543;45.494;9.100;2023-04-24T17:05:13;0.98;;;0.30;;
78290;SDS011;67543;45.494;9.100;2023-04-24T17:07:40;0.40;;;0.20;;
78290;SDS011;67543;45.494;9.100;2023-04-24T17:10:11;0.60;;;0.40;;
78290;SDS011;67543;45.494;9.100;2023-04-24T17:12:40;1.13;;;0.50;;
78290;SDS011;67543;45.494;9.100;2023-04-24T17:15:09;0.82;;;0.43;;
78290;SDS011;67543;45.494;9.100;2023-04-24T17:17:38;3.88;;;1.17;;
78290;SDS011;67543;45.494;9.100;2023-04-24T17:20:15;9.90;;;6.03;;
78290;SDS011;67543;45.494;9.100;2023-04-24T17:22:42;12.00;;;6.25;;
78290;SDS011;67543;45.494;9.100;2023-04-24T17:25:08;4.68;;;2.63;;
78290;SDS011;67543;45.494;9.100;2023-04-24T17:27:34;3.60;;;1.55;;
78290;SDS011;67543;45.494;9.100;2023-04-24T17:30:00;1.20;;;0.70;;
78290;SDS011;67543;45.494;9.100;2023-04-24T17:32:26;1.83;;;0.70;;
78290;SDS011;67543;45.494;9.100;2023-04-24T17:34:51;2.75;;;0.82;;
78290;SDS011;67543;45.494;9.100;2023-04-24T17:37:17;1.35;;;0.50;;
78290;SDS011;67543;45.494;9.100;2023-04-24T17:39:47;5.32;;;0.80;;
78290;SDS011;67543;45.494;9.100;2023-04-24T17:42:14;4.75;;;0.70;;
78290;SDS011;67543;45.494;9.100;2023-04-24T17:44:40;5.30;;;1.33;;
78290;SDS011;67543;45.494;9.100;2023-04-24T17:47:06;1.83;;;0.60;;
78290;SDS011;67543;45.494;9.100;2023-04-24T17:49:32;1.42;;;0.75;;
78290;SDS011;67543;45.494;9.100;2023-04-24T17:51:58;0.65;;;0.30;;
78290;SDS011;67543;45.494;9.100;2023-04-24T17:54:24;2.35;;;0.63;;
78290;SDS011;67543;45.494;9.100;2023-04-24T17:56:50;1.05;;;0.50;;
78290;SDS011;67543;45.494;9.100;2023-04-24T17:59:17;1.13;;;0.75;;
78290;SDS011;67543;45.494;9.100;2023-04-24T18:01:44;2.75;;;0.80;;
78290;SDS011;67543;45.494;9.100;2023-04-24T18:04:09;3.03;;;0.77;;
78290;SDS011;67543;45.494;9.100;2023-04-24T18:06:35;2.80;;;0.60;;
78290;SDS011;67543;45.494;9.100;2023-04-24T18:09:03;1.40;;;0.80;;
78290;SDS011;67543;45.494;9.100;2023-04-24T18:11:29;2.88;;;0.73;;
78290;SDS011;67543;45.494;9.100;2023-04-24T18:13:54;1.15;;;0.50;;
78290;SDS011;67543;45.494;9.100;2023-04-24T18:16:20;3.47;;;0.70;;
78290;SDS011;67543;45.494;9.100;2023-04-24T18:18:45;1.73;;;0.43;;
78290;SDS011;67543;45.494;9.100;2023-04-24T18:21:11;2.47;;;0.70;;
78290;SDS011;67543;45.494;9.100;2023-04-24T18:23:36;3.00;;;0.82;;
78290;SDS011;67543;45.494;9.100;2023-04-24T18:26:02;1.10;;;0.77;;
78290;SDS011;67543;45.494;9.100;2023-04-24T18:28:28;1.10;;;0.60;;
78290;SDS011;67543;45.494;9.100;2023-04-24T18:30:58;1.08;;;0.57;;
78290;SDS011;67543;45.494;9.100;2023-04-24T18:33:25;1.00;;;0.60;;
78290;SDS011;67543;45.494;9.100;2023-04-24T18:35:52;1.30;;;0.68;;
78290;SDS011;67543;45.494;9.100;2023-04-24T18:38:18;1.92;;;0.63;;
78290;SDS011;67543;45.494;9.100;2023-04-24T18:40:46;1.60;;;0.70;;
78290;SDS011;67543;45.494;9.100;2023-04-24T18:43:12;1.45;;;0.55;;
78290;SDS011;67543;45.494;9.100;2023-04-24T18:45:37;2.40;;;1.00;;
78290;SDS011;67543;45.494;9.100;2023-04-24T18:48:10;2.20;;;0.90;;
78290;SDS011;67543;45.494;9.100;2023-04-24T18:50:38;1.90;;;0.60;;
78290;SDS011;67543;45.494;9.100;2023-04-24T18:53:08;3.25;;;0.93;;
78290;SDS011;67543;45.494;9.100;2023-04-24T18:55:36;2.97;;;0.98;;
78290;SDS011;67543;45.494;9.100;2023-04-24T18:58:04;3.35;;;0.90;;
78290;SDS011;67543;45.494;9.100;2023-04-24T19:00:36;1.35;;;0.90;;
78290;SDS011;67543;45.494;9.100;2023-04-24T19:03:09;1.63;;;0.55;;
78290;SDS011;67543;45.494;9.100;2023-04-24T19:05:40;1.70;;;0.80;;
78290;SDS011;67543;45.494;9.100;2023-04-24T19:08:11;1.20;;;0.95;;
78290;SDS011;67543;45.494;9.100;2023-04-24T19:10:39;2.33;;;0.90;;
78290;SDS011;67543;45.494;9.100;2023-04-24T19:13:05;1.38;;;0.80;;
78290;SDS011;67543;45.494;9.100;2023-04-24T19:15:30;1.88;;;1.00;;
78290;SDS011;67543;45.494;9.100;2023-04-24T19:17:57;1.80;;;1.10;;
78290;SDS011;67543;45.494;9.100;2023-04-24T19:20:24;1.90;;;1.02;;
78290;SDS011;67543;45.494;9.100;2023-04-24T19:22:50;1.75;;;0.95;;
78290;SDS011;67543;45.494;9.100;2023-04-24T19:25:15;1.83;;;0.90;;
78290;SDS011;67543;45.494;9.100;2023-04-24T19:27:40;3.20;;;1.05;;
78290;SDS011;67543;45.494;9.100;2023-04-24T19:30:06;2.95;;;0.73;;
78290;SDS011;67543;45.494;9.100;2023-04-24T19:32:32;2.03;;;0.80;;
78290;SDS011;67543;45.494;9.100;2023-04-24T19:34:57;2.17;;;1.20;;
78290;SDS011;67543;45.494;9.100;2023-04-24T19:37:22;2.40;;;0.95;;
78290;SDS011;67543;45.494;9.100;2023-04-24T19:39:48;2.33;;;1.08;;
78290;SDS011;67543;45.494;9.100;2023-04-24T19:42:13;2.17;;;0.80;;
78290;SDS011;67543;45.494;9.100;2023-04-24T19:44:39;1.70;;;0.80;;
78290;SDS011;67543;45.494;9.100;2023-04-24T19:47:04;1.52;;;0.80;;
78290;SDS011;67543;45.494;9.100;2023-04-24T19:49:29;1.30;;;0.90;;
78290;SDS011;67543;45.494;9.100;2023-04-24T19:51:55;2.35;;;1.10;;
78290;SDS011;67543;45.494;9.100;2023-04-24T19:54:21;1.60;;;0.70;;
78290;SDS011;67543;45.494;9.100;2023-04-24T19:56:46;1.50;;;0.52;;
78290;SDS011;67543;45.494;9.100;2023-04-24T19:59:12;1.30;;;0.90;;
78290;SDS011;67543;45.494;9.100;2023-04-24T20:01:37;1.13;;;0.60;;
78290;SDS011;67543;45.494;9.100;2023-04-24T20:04:03;1.52;;;0.82;;
78290;SDS011;67543;45.494;9.100;2023-04-24T20:06:31;3.45;;;0.70;;
78290;SDS011;67543;45.494;9.100;2023-04-24T20:08:57;1.73;;;0.75;;
78290;SDS011;67543;45.494;9.100;2023-04-24T20:11:22;1.33;;;0.60;;
78290;SDS011;67543;45.494;9.100;2023-04-24T20:13:48;1.15;;;0.77;;
78290;SDS011;67543;45.494;9.100;2023-04-24T20:16:13;2.00;;;0.73;;
78290;SDS011;67543;45.494;9.100;2023-04-24T20:18:38;1.45;;;0.80;;
78290;SDS011;67543;45.494;9.100;2023-04-24T20:21:07;1.63;;;0.70;;
78290;SDS011;67543;45.494;9.100;2023-04-24T20:23:32;2.13;;;0.68;;
78290;SDS011;67543;45.494;9.100;2023-04-24T20:25:58;1.83;;;0.60;;
78290;SDS011;67543;45.494;9.100;2023-04-24T20:28:24;1.60;;;0.60;;
78290;SDS011;67543;45.494;9.100;2023-04-24T20:30:52;1.55;;;0.70;;
78290;SDS011;67543;45.494;9.100;2023-04-24T20:33:17;2.33;;;1.08;;
78290;SDS011;67543;45.494;9.100;2023-04-24T20:35:43;2.38;;;0.73;;
78290;SDS011;67543;45.494;9.100;2023-04-24T20:38:09;3.58;;;0.75;;
